Time;durP1;ratioP1;P1;durP2;ratioP2;P2;SDS_P1;SDS_P2;PMS_P1;PMS_P2;Temp;Humidity;BMP_temperature;BMP_pressure;BME280_temperature;BME280_humidity;BME280_pressure;Samples;Min_cycle;Max_cycle;Signal;HPM_P1;HPM_P2
2022/11/24 00:01:10;;;;;;;;;8.00;5.50;;;;;20.65;60.00;99879.50;5021336;28;61954;-53
2022/11/24 00:03:36;;;;;;;;;7.75;5.00;;;;;20.65;59.54;99883.00;5022206;28;45341;-51
2022/11/24 00:06:06;;;;;;;;;10.50;6.00;;;;;20.65;59.56;99880.34;5022075;28;45363;-50
2022/11/24 00:08:32;;;;;;;;;8.75;5.25;;;;;20.66;60.13;99875.91;5021613;28;46369;-51
2022/11/24 00:11:05;;;;;;;;;4.25;4.25;;;;;20.65;59.48;99882.16;5023347;28;45324;-52
2022/11/24 00:13:31;;;;;;;;;8.00;6.50;;;;;20.63;59.14;99890.19;5022796;28;45354;-53
2022/11/24 00:16:07;;;;;;;;;7.00;5.75;;;;;20.63;59.58;99887.53;5023152;28;45307;-51
2022/11/24 00:18:32;;;;;;;;;7.50;6.50;;;;;20.62;59.28;99899.06;5022757;28;45284;-52
2022/11/24 00:20:57;;;;;;;;;7.50;5.75;;;;;20.62;59.31;99892.91;5020680;28;73476;-52
2022/11/24 00:23:23;;;;;;;;;6.00;5.00;;;;;20.61;59.00;99902.66;5023085;28;45348;-51
2022/11/24 00:25:48;;;;;;;;;6.50;5.50;;;;;20.61;59.29;99894.69;5021582;28;56298;-50
2022/11/24 00:28:14;;;;;;;;;6.50;5.00;;;;;20.60;59.22;99880.59;5022218;28;55664;-51
2022/11/24 00:30:39;;;;;;;;;12.00;9.00;;;;;20.59;59.08;99872.72;5021214;28;59895;-54
2022/11/24 00:33:04;;;;;;;;;6.75;5.00;;;;;20.59;59.99;99870.06;5020524;28;69362;-51
2022/11/24 00:35:30;;;;;;;;;8.00;6.00;;;;;20.59;59.54;99864.75;5022248;28;57784;-51
2022/11/24 00:37:55;;;;;;;;;6.00;5.50;;;;;20.59;59.28;99867.41;5004263;28;59926;-54
2022/11/24 00:40:20;;;;;;;;;7.75;6.00;;;;;20.60;59.42;99861.16;5022626;28;45222;-54
2022/11/24 00:42:46;;;;;;;;;7.50;7.50;;;;;20.59;59.37;99839.09;5021860;28;59335;-53
2022/11/24 00:45:11;;;;;;;;;5.00;5.00;;;;;20.59;59.37;99835.59;5022358;28;54850;-52
2022/11/24 00:47:36;;;;;;;;;6.75;4.50;;;;;20.59;59.15;99838.25;5020213;28;72862;-52
2022/11/24 00:50:03;;;;;;;;;7.25;5.50;;;;;20.58;59.25;99840.00;5021146;28;46134;-51
2022/11/24 00:52:28;;;;;;;;;8.25;8.25;;;;;20.58;58.85;99842.66;5021282;28;45415;-50
2022/11/24 00:54:53;;;;;;;;;7.50;4.75;;;;;20.57;59.03;99845.38;5021233;28;45640;-54
2022/11/24 00:57:19;;;;;;;;;7.00;7.00;;;;;20.56;59.20;99860.44;5021781;28;64531;-53
2022/11/24 00:59:44;;;;;;;;;5.00;5.00;;;;;20.56;59.17;99807.41;5022177;28;54095;-53
2022/11/24 01:02:10;;;;;;;;;6.75;6.00;;;;;20.57;58.65;99837.44;5020594;28;49972;-54
2022/11/24 01:04:35;;;;;;;;;6.25;5.00;;;;;20.55;58.90;99840.16;5021335;28;65996;-52
2022/11/24 01:07:00;;;;;;;;;5.00;5.00;;;;;20.55;59.18;99852.56;5021037;28;71591;-54
2022/11/24 01:09:26;;;;;;;;;11.25;6.00;;;;;20.54;58.69;99861.44;5021186;28;73546;-53
2022/11/24 01:12:00;;;;;;;;;6.75;6.75;;;;;20.55;59.12;99864.03;5020039;28;57729;-52
2022/11/24 01:14:26;;;;;;;;;6.00;4.75;;;;;20.53;58.97;99854.44;5022222;28;45372;-55
2022/11/24 01:16:51;;;;;;;;;6.25;4.50;;;;;20.54;58.96;99872.03;5021519;28;54788;-54
2022/11/24 01:19:17;;;;;;;;;6.00;6.00;;;;;20.53;59.11;99886.22;5020286;28;59816;-52
2022/11/24 01:21:42;;;;;;;;;8.00;5.75;;;;;20.52;58.70;99880.06;5022101;28;45250;-54
2022/11/24 01:24:08;;;;;;;;;7.00;7.00;;;;;20.53;58.88;99892.41;5019955;28;71402;-54
2022/11/24 01:26:34;;;;;;;;;8.75;6.00;;;;;20.52;58.86;99895.13;5021624;28;45295;-53
2022/11/24 01:28:59;;;;;;;;;6.75;5.25;;;;;20.50;58.99;99896.97;5020657;28;65896;-52
2022/11/24 01:31:24;;;;;;;;;8.25;5.50;;;;;20.51;58.92;99904.00;5021027;28;61647;-52
2022/11/24 01:33:50;;;;;;;;;6.00;5.00;;;;;20.51;58.71;99909.31;5021456;28;54772;-53
2022/11/24 01:36:15;;;;;;;;;6.25;5.50;;;;;20.51;59.31;99910.16;5021547;28;45305;-53
2022/11/24 01:38:41;;;;;;;;;6.25;3.50;;;;;20.51;59.20;99926.06;5021033;28;68981;-53
2022/11/24 01:41:11;;;;;;;;;4.50;4.00;;;;;20.51;59.40;99934.03;5020833;28;45917;-51
2022/11/24 01:43:37;;;;;;;;;6.25;5.75;;;;;20.49;59.02;99938.50;5021516;28;45249;-52
2022/11/24 01:46:23;;;;;;;;;4.75;4.50;;;;;20.51;59.13;99954.38;5003683;28;47070;-52
2022/11/24 01:49:06;;;;;;;;;6.50;5.00;;;;;20.51;59.37;99962.31;5019921;28;49764;-53
2022/11/24 01:51:33;;;;;;;;;6.75;4.50;;;;;20.51;59.22;99957.03;5021713;28;45287;-53
2022/11/24 01:54:07;;;;;;;;;5.00;5.00;;;;;20.49;58.85;99958.84;5003782;28;45229;-51
2022/11/24 01:56:34;;;;;;;;;4.75;3.50;;;;;20.49;58.93;99958.84;5020071;28;46232;-53
2022/11/24 01:59:00;;;;;;;;;6.00;4.50;;;;;20.48;59.18;99963.28;5020086;28;45316;-53
2022/11/24 02:01:25;;;;;;;;;3.50;3.50;;;;;20.49;59.32;99969.47;5019972;28;48442;-53
2022/11/24 02:03:50;;;;;;;;;3.75;2.50;;;;;20.46;58.97;99973.13;5021210;28;45608;-52
2022/11/24 02:06:22;;;;;;;;;5.75;5.00;;;;;20.48;59.16;99988.94;5020471;28;69910;-52
2022/11/24 02:08:54;;;;;;;;;5.25;5.00;;;;;20.46;58.85;99991.66;5019932;28;45355;-54
2022/11/24 02:11:20;;;;;;;;;4.25;3.00;;;;;20.46;59.27;99996.09;5020296;28;45398;-50
2022/11/24 02:13:45;;;;;;;;;2.75;2.75;;;;;20.46;59.62;99996.09;5002888;28;47707;-51
2022/11/24 02:16:11;;;;;;;;;5.25;4.50;;;;;20.46;58.96;99998.75;5019690;28;73097;-51
2022/11/24 02:18:37;;;;;;;;;7.25;4.00;;;;;20.46;59.13;100012.88;5018546;28;71816;-50
2022/11/24 02:21:02;;;;;;;;;8.25;5.00;;;;;20.45;58.86;100010.28;5021120;28;45270;-50
2022/11/24 02:24:39;;;;;;;;;7.00;4.50;;;;;20.46;59.29;100006.72;5002803;28;55673;-51
2022/11/24 02:27:04;;;;;;;;;3.75;3.50;;;;;20.44;59.28;100005.94;4998897;28;45354;-53
2022/11/24 02:29:29;;;;;;;;;5.75;5.25;;;;;20.45;59.81;100010.28;5016106;28;45239;-55
2022/11/24 02:31:58;;;;;;;;;3.50;3.50;;;;;20.44;59.31;100013.88;5021006;28;45730;-54
2022/11/24 02:34:23;;;;;;;;;5.50;4.00;;;;;20.43;59.47;100030.69;5003140;28;45395;-53
2022/11/24 02:36:48;;;;;;;;;7.25;4.00;;;;;20.42;59.40;100021.88;5019987;28;68689;-53
2022/11/24 02:39:14;;;;;;;;;5.75;3.00;;;;;20.42;59.49;100029.81;5020730;28;45309;-53
2022/11/24 02:41:41;;;;;;;;;7.75;5.00;;;;;20.43;59.43;100030.69;5019505;28;45647;-53
2022/11/24 02:44:07;;;;;;;;;2.50;2.25;;;;;20.42;59.67;100035.13;5019623;28;45430;-51
2022/11/24 02:46:32;;;;;;;;;5.00;3.75;;;;;20.41;59.54;100057.22;5020700;28;46160;-53
2022/11/24 02:48:57;;;;;;;;;5.75;5.75;;;;;20.42;59.36;100052.81;5019136;28;51483;-53
2022/11/24 02:51:23;;;;;;;;;8.75;4.50;;;;;20.41;59.48;100057.22;5020648;28;45153;-53
2022/11/24 02:53:48;;;;;;;;;6.25;4.25;;;;;20.42;59.58;100069.56;5020550;28;45378;-52
2022/11/24 02:56:14;;;;;;;;;6.00;4.75;;;;;20.43;59.54;100067.78;5018885;28;57557;-52
2022/11/24 02:58:39;;;;;;;;;5.00;5.00;;;;;20.42;59.27;100080.19;5020172;28;45246;-52
2022/11/24 03:01:05;;;;;;;;;5.00;2.50;;;;;20.42;59.50;100074.03;5002789;28;45333;-50
2022/11/24 03:03:30;;;;;;;;;6.50;5.00;;;;;20.42;59.27;100068.72;5018068;28;70332;-53
2022/11/24 03:05:55;;;;;;;;;4.25;3.25;;;;;20.42;59.95;100090.78;5018449;28;71319;-50
2022/11/24 03:08:21;;;;;;;;;3.00;3.00;;;;;20.42;59.58;100087.28;5019893;28;53419;-52
2022/11/24 03:10:46;;;;;;;;;3.75;3.00;;;;;20.44;59.61;100096.03;5020066;28;58577;-49
2022/11/24 03:13:11;;;;;;;;;5.00;3.00;;;;;20.42;59.75;100112.00;5020143;28;45338;-54
2022/11/24 03:15:37;;;;;;;;;5.50;4.00;;;;;20.42;59.90;100121.72;5018838;28;47262;-53
2022/11/24 03:18:02;;;;;;;;;5.00;2.75;;;;;20.41;60.22;100127.94;5018911;28;45353;-52
2022/11/24 03:20:28;;;;;;;;;3.00;3.00;;;;;20.41;59.55;100123.47;5018565;28;60094;-53
2022/11/24 03:22:53;;;;;;;;;4.00;2.00;;;;;20.40;59.55;100123.56;5019137;28;45296;-51
2022/11/24 03:25:18;;;;;;;;;5.50;5.00;;;;;20.39;59.79;100128.00;5019569;28;72350;-53
2022/11/24 03:27:44;;;;;;;;;6.00;3.00;;;;;20.39;59.55;100121.84;5019594;28;45343;-52
2022/11/24 03:30:10;;;;;;;;;5.00;3.50;;;;;20.40;60.06;100128.84;5019586;28;45248;-52
2022/11/24 03:32:35;;;;;;;;;5.50;2.25;;;;;20.38;60.19;100139.53;5002506;28;45470;-54
2022/11/24 03:35:00;;;;;;;;;4.25;3.00;;;;;20.38;59.99;100136.88;5019175;28;67231;-53
2022/11/24 03:37:26;;;;;;;;;4.25;4.00;;;;;20.39;60.09;100135.09;5019340;28;65262;-53
2022/11/24 03:39:51;;;;;;;;;5.50;4.00;;;;;20.39;59.78;100132.44;5019041;28;45495;-51
2022/11/24 03:42:16;;;;;;;;;5.50;2.75;;;;;20.39;59.73;100143.03;5019636;28;45421;-54
2022/11/24 03:44:42;;;;;;;;;3.00;3.00;;;;;20.38;60.00;100139.53;5019573;28;55253;-54
2022/11/24 03:47:09;;;;;;;;;5.00;3.00;;;;;20.38;59.88;100142.19;5019105;28;66356;-54
2022/11/24 03:49:35;;;;;;;;;3.00;3.00;;;;;20.38;59.97;100147.47;5018526;28;45467;-54
2022/11/24 03:52:00;;;;;;;;;6.25;3.00;;;;;20.38;59.96;100136.88;5019788;28;45592;-51
2022/11/24 03:54:26;;;;;;;;;5.50;3.00;;;;;20.38;59.69;100147.47;5019294;28;57618;-51
2022/11/24 03:56:51;;;;;;;;;3.25;2.00;;;;;20.38;60.05;100143.97;5019056;28;58594;-51
2022/11/24 03:59:18;;;;;;;;;4.50;4.00;;;;;20.39;59.65;100153.63;5019844;28;45332;-53
2022/11/24 04:01:43;;;;;;;;;4.75;4.75;;;;;20.38;59.48;100162.53;5018403;28;45355;-51
2022/11/24 04:04:11;;;;;;;;;3.75;2.50;;;;;20.37;60.08;100156.34;5019548;28;49514;-54
2022/11/24 04:06:37;;;;;;;;;3.00;2.75;;;;;20.37;59.85;100164.31;5019774;28;45223;-52
2022/11/24 04:09:03;;;;;;;;;3.00;3.00;;;;;20.36;59.62;100170.53;5019621;28;45277;-54
2022/11/24 04:14:12;;;;;;;;;2.00;2.00;;;;;20.36;59.64;100177.63;5019761;28;45280;-54
2022/11/24 04:16:37;;;;;;;;;6.00;3.00;;;;;20.35;59.72;100176.75;5018517;28;69454;-54
2022/11/24 04:19:03;;;;;;;;;6.00;4.00;;;;;20.36;59.59;100185.56;5017583;28;61443;-54
2022/11/24 04:21:28;;;;;;;;;4.50;3.00;;;;;20.35;59.87;100191.81;5019097;28;52171;-53
2022/11/24 04:23:53;;;;;;;;;3.00;2.00;;;;;20.33;59.63;100175.97;5018608;28;70552;-53
2022/11/24 04:26:19;;;;;;;;;3.00;2.25;;;;;20.32;59.60;100190.97;5018446;28;71594;-53
2022/11/24 04:28:44;;;;;;;;;3.25;2.00;;;;;20.33;59.90;100191.88;5018566;28;67317;-51
2022/11/24 04:31:09;;;;;;;;;4.25;3.00;;;;;20.32;59.49;100190.13;5018309;28;68721;-52
2022/11/24 04:33:35;;;;;;;;;2.00;2.00;;;;;20.32;59.67;100187.47;5018568;28;61595;-51
2022/11/24 04:36:00;;;;;;;;;2.00;2.00;;;;;20.31;59.86;100197.22;5018747;28;53428;-53
2022/11/24 04:38:25;;;;;;;;;2.25;2.25;;;;;20.31;59.99;100201.66;5018520;28;69116;-51
2022/11/24 04:40:51;;;;;;;;;3.75;3.50;;;;;20.31;59.96;100196.34;5019253;28;69052;-53
2022/11/24 04:43:18;;;;;;;;;3.50;3.00;;;;;20.31;59.64;100196.34;5020536;28;69941;-53
2022/11/24 04:45:43;;;;;;;;;3.25;2.75;;;;;20.31;60.36;100205.16;5021246;28;45290;-49
2022/11/24 04:48:08;;;;;;;;;3.00;3.00;;;;;20.32;60.01;100208.66;5004860;28;46278;-52
2022/11/24 04:50:35;;;;;;;;;3.75;3.00;;;;;20.32;60.40;100208.66;5020318;28;66811;-52
2022/11/24 04:53:00;;;;;;;;;3.25;2.75;;;;;20.32;60.30;100208.66;5021098;28;45450;-51
2022/11/24 04:55:26;;;;;;;;;3.75;2.00;;;;;20.32;59.94;100214.81;5020276;28;63018;-52
2022/11/24 04:57:51;;;;;;;;;3.75;2.25;;;;;20.33;60.21;100210.44;5021707;28;59579;-51
2022/11/24 05:00:17;;;;;;;;;2.50;2.50;;;;;20.34;60.20;100220.09;5021202;28;69735;-50
2022/11/24 05:02:42;;;;;;;;;2.75;2.00;;;;;20.34;60.75;100220.09;5003318;28;46861;-52
2022/11/24 05:05:08;;;;;;;;;3.00;2.75;;;;;20.36;60.34;100234.16;5020214;28;67064;-49
2022/11/24 05:07:33;;;;;;;;;6.25;2.50;;;;;20.36;60.35;100222.69;5020152;28;45296;-51
2022/11/24 05:12:43;;;;;;;;;2.00;2.00;;;;;20.37;60.66;100230.56;5021021;28;45425;-51
2022/11/24 05:15:09;;;;;;;;;1.75;1.25;;;;;20.38;60.83;100228.78;5020895;28;45362;-52
2022/11/24 05:17:35;;;;;;;;;3.25;2.00;;;;;20.38;60.88;100229.63;5019895;28;45283;-49
2022/11/24 05:20:01;;;;;;;;;2.50;2.50;;;;;20.40;61.13;100232.22;5020741;28;45562;-54
2022/11/24 05:22:27;;;;;;;;;3.75;1.50;;;;;20.40;61.29;100233.09;5019940;28;73724;-52
2022/11/24 05:24:52;;;;;;;;;4.50;3.50;;;;;20.41;61.47;100232.16;5020717;28;45307;-51
2022/11/24 05:27:18;;;;;;;;;3.50;3.50;;;;;20.43;61.08;100237.44;5019780;28;68296;-53
2022/11/24 05:29:43;;;;;;;;;3.00;2.00;;;;;20.43;61.63;100240.06;5019797;28;67627;-53
2022/11/24 05:32:08;;;;;;;;;3.00;2.25;;;;;20.45;61.74;100238.25;5018387;28;74398;-52
2022/11/24 05:34:34;;;;;;;;;2.00;2.00;;;;;20.45;61.67;100239.13;5019446;28;73309;-52
2022/11/24 05:37:02;;;;;;;;;2.75;1.75;;;;;20.47;61.78;100236.41;5019933;28;64570;-51
2022/11/24 05:39:36;;;;;;;;;3.75;2.25;;;;;20.48;62.01;100240.78;5020463;28;45165;-52
2022/11/24 05:44:47;;;;;;;;;4.75;2.75;;;;;20.49;61.98;100250.44;5020408;28;45227;-51
2022/11/24 05:47:13;;;;;;;;;4.50;2.50;;;;;20.50;61.89;100247.75;5020477;28;45251;-50
2022/11/24 05:49:38;;;;;;;;;4.00;4.00;;;;;20.50;61.58;100252.16;5018646;28;54701;-53
2022/11/24 05:52:03;;;;;;;;;2.00;1.00;;;;;20.50;61.98;100255.72;5000577;28;72507;-55
2022/11/24 05:54:29;;;;;;;;;2.00;2.00;;;;;20.52;61.84;100260.94;5019560;28;65991;-51
2022/11/24 05:56:54;;;;;;;;;3.00;3.00;;;;;20.52;61.97;100259.16;5019568;28;55951;-49
2022/11/24 05:59:20;;;;;;;;;2.00;1.75;;;;;20.53;62.09;100265.31;5007089;28;45256;-53
2022/11/24 06:01:45;;;;;;;;;4.25;1.50;;;;;20.54;61.93;100267.06;4978847;28;1149782;-52
2022/11/24 06:04:11;;;;;;;;;2.50;2.50;;;;;20.54;62.25;100277.66;5021298;28;45356;-51
2022/11/24 06:06:36;;;;;;;;;1.50;1.50;;;;;20.54;61.99;100275.00;5020913;28;57786;-55
2022/11/24 06:09:01;;;;;;;;;3.50;2.75;;;;;20.55;61.64;100272.28;5020401;28;66365;-53
2022/11/24 06:11:27;;;;;;;;;4.50;3.00;;;;;20.55;61.87;100279.38;5020211;28;67387;-55
2022/11/24 06:13:52;;;;;;;;;3.50;3.50;;;;;20.55;62.18;100282.03;5003267;28;45363;-53
2022/11/24 06:16:18;;;;;;;;;3.00;2.50;;;;;20.55;62.17;100282.03;5020947;28;50630;-54
2022/11/24 06:18:43;;;;;;;;;3.75;2.00;;;;;20.57;62.12;100282.81;5019363;28;53006;-53
2022/11/24 06:21:09;;;;;;;;;2.00;2.00;;;;;20.56;62.14;100289.06;5021031;28;45324;-52
2022/11/24 06:23:34;;;;;;;;;3.00;2.00;;;;;20.57;62.39;100286.34;5002848;28;45281;-51
2022/11/24 06:26:00;;;;;;;;;2.75;1.25;;;;;20.58;62.37;100287.19;5019730;28;45363;-53
2022/11/24 06:28:25;;;;;;;;;4.00;2.75;;;;;20.58;62.06;100295.16;5020391;28;45519;-54
2022/11/24 06:30:51;;;;;;;;;5.00;2.00;;;;;20.59;62.20;100299.56;5002869;28;50435;-55
2022/11/24 06:33:16;;;;;;;;;4.00;2.25;;;;;20.59;62.21;100299.56;5020312;28;45416;-53
2022/11/24 06:35:42;;;;;;;;;3.00;2.25;;;;;20.59;61.99;100296.91;5020147;28;55523;-52
2022/11/24 06:38:07;;;;;;;;;2.50;2.50;;;;;20.58;61.36;100300.47;5018497;28;69257;-53
2022/11/24 06:40:32;;;;;;;;;4.25;2.00;;;;;20.60;61.86;100310.09;5020136;28;64231;-53
2022/11/24 06:42:58;;;;;;;;;3.50;2.25;;;;;20.61;61.95;100303.00;5019367;28;70554;-52
2022/11/24 06:45:23;;;;;;;;;4.00;2.00;;;;;20.63;62.24;100305.59;5019805;28;45482;-53
2022/11/24 06:47:48;;;;;;;;;4.00;3.00;;;;;20.63;62.31;100316.22;5020527;28;45441;-54
2022/11/24 06:50:14;;;;;;;;;2.00;1.50;;;;;20.63;61.85;100319.72;5018998;28;55858;-53
2022/11/24 06:52:40;;;;;;;;;4.50;2.00;;;;;20.64;62.17;100321.44;5020364;28;46765;-53
2022/11/24 06:55:05;;;;;;;;;3.75;2.25;;;;;20.65;61.25;100330.25;5019490;28;45294;-52
2022/11/24 06:57:31;;;;;;;;;5.00;2.00;;;;;20.64;62.33;100328.53;5020100;28;45235;-53
2022/11/24 06:59:57;;;;;;;;;2.00;2.00;;;;;20.64;61.91;100334.69;5020574;28;45370;-53
2022/11/24 07:02:22;;;;;;;;;5.75;3.75;;;;;20.65;61.33;100330.25;5019834;28;45533;-54
2022/11/24 07:04:48;;;;;;;;;4.50;4.50;;;;;20.66;61.71;100347.91;5020511;28;45346;-52
2022/11/24 07:07:13;;;;;;;;;3.75;2.75;;;;;20.66;61.58;100353.19;5018590;28;54305;-49
2022/11/24 07:09:39;;;;;;;;;2.75;2.75;;;;;20.66;61.68;100362.00;5019572;28;70057;-50
2022/11/24 07:12:04;;;;;;;;;4.75;3.00;;;;;20.67;60.93;100365.53;5019572;28;64273;-50
2022/11/24 07:14:30;;;;;;;;;4.00;2.00;;;;;20.65;60.76;100365.59;5018280;28;45317;-49
2022/11/24 07:16:56;;;;;;;;;6.50;4.00;;;;;20.64;60.56;100361.22;5015763;28;45804;-50
2022/11/24 07:19:21;;;;;;;;;3.00;3.00;;;;;20.66;60.94;100369.09;5016225;28;48824;-49
2022/11/24 07:21:46;;;;;;;;;2.00;1.50;;;;;20.63;56.93;100369.25;5018940;28;60066;-53
2022/11/24 07:24:12;;;;;;;;;1.50;1.50;;;;;20.29;54.82;100375.75;5002420;28;45268;-50
2022/11/24 07:26:37;;;;;;;;;1.00;1.00;;;;;19.83;54.00;100371.25;5017842;28;45584;-50
2022/11/24 07:29:04;;;;;;;;;1.50;1.50;;;;;19.39;53.66;100385.03;5017562;28;46013;-53
2022/11/24 07:31:29;;;;;;;;;5.00;3.00;;;;;19.00;53.92;100392.44;5018543;28;45239;-51
2022/11/24 07:33:54;;;;;;;;;4.00;2.00;;;;;18.67;53.79;100389.03;5019145;28;63480;-53
2022/11/24 07:36:20;;;;;;;;;3.75;2.75;;;;;18.39;54.66;100388.06;5018552;28;45288;-54
2022/11/24 07:38:45;;;;;;;;;5.25;2.50;;;;;18.17;54.61;100390.47;5001967;28;45612;-49
2022/11/24 07:41:12;;;;;;;;;4.00;3.00;;;;;18.00;54.47;100394.44;5018256;28;56707;-51
2022/11/24 07:43:37;;;;;;;;;2.50;1.25;;;;;17.81;54.79;100387.91;5018568;28;45369;-52
2022/11/24 07:46:04;;;;;;;;;3.50;3.00;;;;;17.65;54.19;100392.69;5019081;28;45555;-55
2022/11/24 07:48:30;;;;;;;;;4.25;3.75;;;;;17.50;54.52;100398.31;5018721;28;45619;-56
2022/11/24 07:50:58;;;;;;;;;4.75;3.00;;;;;17.38;55.08;100401.28;5019855;28;45326;-55
2022/11/24 07:53:23;;;;;;;;;5.75;4.25;;;;;17.27;54.94;100417.34;5018515;28;45279;-55
2022/11/24 07:55:55;;;;;;;;;6.00;3.00;;;;;17.15;54.70;100412.34;5016196;28;61608;-55
2022/11/24 07:58:21;;;;;;;;;5.75;4.00;;;;;17.06;56.49;100412.56;5014289;28;45670;-52
2022/11/24 08:00:46;;;;;;;;;5.50;4.75;;;;;17.13;58.62;100420.31;5018199;28;45387;-51
2022/11/24 08:03:12;;;;;;;;;7.75;6.00;;;;;17.31;60.28;100424.28;5017504;28;63309;-51
2022/11/24 08:05:37;;;;;;;;;4.50;4.00;;;;;17.51;60.64;100423.81;5017922;28;62886;-49
2022/11/24 08:08:03;;;;;;;;;3.50;2.50;;;;;17.70;60.95;100433.03;5016731;28;61966;-51
2022/11/24 08:10:29;;;;;;;;;3.50;3.50;;;;;17.90;61.46;100436.97;5018158;28;45418;-49
2022/11/24 08:12:54;;;;;;;;;7.75;5.00;;;;;18.07;62.06;100429.47;5019409;28;45324;-47
2022/11/24 08:15:20;;;;;;;;;5.00;5.00;;;;;18.24;62.33;100428.97;5002861;28;45256;-49
2022/11/24 08:17:45;;;;;;;;;5.50;4.00;;;;;18.40;62.41;100437.38;5005042;28;46363;-47
2022/11/24 08:20:11;;;;;;;;;8.75;6.00;;;;;18.54;62.58;100449.28;5022665;28;45153;-48
2022/11/24 08:22:36;;;;;;;;;8.25;4.50;;;;;18.66;62.74;100442.81;5023061;28;45166;-49
2022/11/24 08:25:02;;;;;;;;;7.75;5.00;;;;;18.78;62.82;100447.75;5022901;28;45427;-50
2022/11/24 08:27:28;;;;;;;;;3.75;3.75;;;;;18.89;62.64;100455.38;5021478;28;45351;-52
2022/11/24 08:29:54;;;;;;;;;5.50;3.00;;;;;18.98;62.90;100463.03;5004931;28;45401;-49
2022/11/24 08:32:19;;;;;;;;;7.75;5.75;;;;;19.07;62.87;100470.69;5023029;28;45311;-48
2022/11/24 08:34:45;;;;;;;;;5.00;4.00;;;;;19.14;62.41;100466.09;5020232;28;68943;-52
2022/11/24 08:37:10;;;;;;;;;7.25;6.25;;;;;19.21;62.56;100470.28;5022707;28;46224;-48
2022/11/24 08:39:36;;;;;;;;;5.00;3.75;;;;;19.28;62.75;100470.94;5021306;28;45340;-49
2022/11/24 08:42:01;;;;;;;;;4.50;4.25;;;;;19.33;62.40;100472.53;5021773;28;62643;-48
2022/11/24 08:44:27;;;;;;;;;4.25;4.00;;;;;19.39;62.32;100472.38;5020206;28;71285;-48
2022/11/24 08:46:53;;;;;;;;;6.00;5.00;;;;;19.44;61.95;100466.91;5022525;28;45371;-49
2022/11/24 08:49:18;;;;;;;;;5.50;5.00;;;;;19.49;62.11;100465.84;5021023;28;45453;-50
2022/11/24 08:51:45;;;;;;;;;4.25;3.25;;;;;19.56;62.09;100473.63;5022637;28;45244;-49
2022/11/24 08:54:14;;;;;;;;;3.50;3.50;;;;;19.59;61.69;100474.41;5022155;28;45218;-48
2022/11/24 08:56:39;;;;;;;;;7.75;4.25;;;;;19.63;61.78;100460.13;5022114;28;45958;-49
2022/11/24 08:59:04;;;;;;;;;6.50;4.00;;;;;19.68;61.42;100463.50;5022246;28;45296;-50
2022/11/24 09:01:30;;;;;;;;;5.25;4.25;;;;;19.72;61.40;100475.75;5003888;28;66715;-50
2022/11/24 09:03:55;;;;;;;;;4.25;4.00;;;;;19.75;61.14;100478.28;5022104;28;45295;-50
2022/11/24 09:06:23;;;;;;;;;8.25;3.50;;;;;19.79;61.08;100471.09;5020555;28;45347;-50
2022/11/24 09:08:49;;;;;;;;;5.00;4.00;;;;;19.83;60.85;100474.53;5004251;28;45269;-53
2022/11/24 09:11:15;;;;;;;;;2.75;2.50;;;;;19.86;60.92;100474.41;5022308;28;45295;-50
2022/11/24 09:13:40;;;;;;;;;4.75;3.50;;;;;19.87;60.73;100474.34;5022121;28;45220;-49
2022/11/24 09:16:13;;;;;;;;;3.50;3.00;;;;;19.89;60.43;100482.25;5021442;28;64738;-48
2022/11/24 09:18:38;;;;;;;;;6.00;3.50;;;;;19.93;60.37;100478.59;5021100;28;45287;-49
2022/11/24 09:21:14;;;;;;;;;3.50;3.25;;;;;19.94;60.43;100480.31;5022536;28;45254;-51
2022/11/24 09:23:40;;;;;;;;;6.75;4.50;;;;;19.96;60.32;100474.03;5021240;28;45209;-51
2022/11/24 09:26:16;;;;;;;;;4.00;4.00;;;;;19.99;60.11;100473.97;5021704;28;47211;-48
2022/11/24 09:28:41;;;;;;;;;2.50;2.50;;;;;20.01;60.17;100487.16;5021996;28;45298;-50
2022/11/24 09:31:08;;;;;;;;;4.00;4.00;;;;;20.02;59.89;100479.16;5020742;28;45298;-49
2022/11/24 09:33:34;;;;;;;;;7.50;5.25;;;;;20.04;60.36;100481.75;5021753;28;47032;-48
2022/11/24 09:35:59;;;;;;;;;6.00;5.50;;;;;20.05;60.12;100478.16;5003134;28;65419;-51
2022/11/24 09:38:25;;;;;;;;;7.75;4.00;;;;;20.07;59.82;100472.81;5021815;28;45272;-50
2022/11/24 09:40:51;;;;;;;;;7.75;3.75;;;;;20.08;59.63;100467.50;5021799;28;45303;-50
2022/11/24 09:43:26;;;;;;;;;4.00;4.00;;;;;20.10;59.89;100475.38;5003802;28;45470;-47
2022/11/24 09:46:01;;;;;;;;;3.00;3.00;;;;;20.11;60.00;100470.03;4987869;28;46584;-49
2022/11/24 09:48:29;;;;;;;;;5.50;3.75;;;;;20.13;60.09;100473.47;5021394;28;45319;-52
2022/11/24 09:50:55;;;;;;;;;5.50;4.25;;;;;20.15;59.83;100470.75;5004059;28;45427;-49
2022/11/24 09:53:55;;;;;;;;;2.75;2.75;;;;;20.16;59.85;100473.38;5020502;28;45235;-47
2022/11/24 09:56:25;;;;;;;;;4.00;3.75;;;;;20.18;59.76;100478.63;5019492;28;46170;-51
2022/11/24 09:58:52;;;;;;;;;5.25;3.75;;;;;20.19;59.72;100481.22;5003877;28;45205;-50
2022/11/24 10:01:29;;;;;;;;;4.50;3.75;;;;;20.21;59.84;100497.06;5020275;28;45373;-53
2022/11/24 10:03:54;;;;;;;;;5.25;4.50;;;;;20.22;59.92;100494.34;5019936;28;45449;-48
2022/11/24 10:06:26;;;;;;;;;5.50;3.75;;;;;20.23;59.68;100503.16;5019908;28;45994;-47
2022/11/24 10:09:23;;;;;;;;;4.50;4.50;;;;;20.24;59.30;100515.50;5019879;28;45419;-48
2022/11/24 10:11:58;;;;;;;;;3.75;3.75;;;;;20.26;59.72;100519.84;5019471;28;45360;-50
2022/11/24 10:14:57;;;;;;;;;5.25;3.75;;;;;20.26;60.03;100496.00;5021186;28;45327;-47
2022/11/24 10:17:42;;;;;;;;;5.50;4.00;;;;;20.27;59.49;100500.38;5019968;28;46277;-47
2022/11/24 10:20:44;;;;;;;;;7.50;4.50;;;;;20.29;59.52;100492.38;5020993;28;45240;-49
2022/11/24 10:23:40;;;;;;;;;6.25;4.50;;;;;20.29;59.66;100487.06;5021161;28;45403;-49
2022/11/24 10:26:18;;;;;;;;;3.50;3.25;;;;;20.30;59.47;100473.75;5017919;28;45390;-49
2022/11/24 10:28:51;;;;;;;;;4.50;4.00;;;;;20.31;58.99;100472.84;5003658;28;45389;-48
2022/11/24 10:31:26;;;;;;;;;6.00;4.75;;;;;20.32;59.22;100466.59;5019841;28;45252;-50
2022/11/24 10:33:51;;;;;;;;;6.00;4.00;;;;;20.33;59.08;100467.50;5019904;28;45528;-48
2022/11/24 10:36:21;;;;;;;;;5.00;3.50;;;;;20.33;59.10;100468.38;5020846;28;45561;-49
2022/11/24 10:39:00;;;;;;;;;5.25;4.50;;;;;20.35;59.34;100468.31;5020164;28;45474;-49
2022/11/24 10:41:50;;;;;;;;;4.00;4.00;;;;;20.36;59.15;100467.38;5019424;28;45292;-46
2022/11/24 10:44:16;;;;;;;;;4.75;3.75;;;;;20.37;59.36;100452.34;5019640;28;45430;-48
2022/11/24 10:46:41;;;;;;;;;4.50;2.75;;;;;20.37;59.20;100453.22;5002995;28;48139;-49
2022/11/24 10:49:07;;;;;;;;;3.00;3.00;;;;;20.39;58.79;100463.75;5017381;28;70945;-49
2022/11/24 10:51:40;;;;;;;;;2.00;1.75;;;;;20.39;58.79;100447.84;5017149;28;58007;-48
2022/11/24 10:54:26;;;;;;;;;5.25;4.25;;;;;20.41;59.09;100456.59;5002352;28;45342;-47
2022/11/24 10:56:52;;;;;;;;;6.50;4.25;;;;;20.42;58.98;100453.06;5018724;28;45790;-49
2022/11/24 10:59:35;;;;;;;;;2.75;2.50;;;;;20.43;59.09;100453.03;5002873;28;46257;-48
2022/11/24 11:02:01;;;;;;;;;3.00;2.75;;;;;20.44;59.19;100448.59;5019864;28;45238;-50
2022/11/24 11:04:31;;;;;;;;;5.00;3.00;;;;;20.44;58.99;100440.66;5019285;28;45229;-51
2022/11/24 11:07:16;;;;;;;;;4.75;4.25;;;;;20.45;58.68;100445.03;5017068;28;45493;-49
2022/11/24 11:09:44;;;;;;;;;5.00;3.75;;;;;20.47;59.32;100435.22;5017400;28;46051;-50
2022/11/24 11:12:11;;;;;;;;;3.50;2.75;;;;;20.48;59.24;100429.00;5018888;28;45283;-48
2022/11/24 11:14:36;;;;;;;;;4.75;4.00;;;;;20.48;58.88;100429.84;5018987;28;45402;-47
2022/11/24 11:17:02;;;;;;;;;5.50;5.25;;;;;20.49;59.36;100420.97;5020152;28;45272;-50
2022/11/24 11:19:41;;;;;;;;;5.75;4.50;;;;;20.50;59.05;100430.69;5018612;28;46886;-52
2022/11/24 11:22:15;;;;;;;;;6.50;5.50;;;;;20.52;59.43;100420.03;5018980;28;45363;-49
2022/11/24 11:24:42;;;;;;;;;6.25;2.50;;;;;20.53;59.55;100416.44;5002880;28;45280;-52
2022/11/24 11:27:19;;;;;;;;;5.00;4.50;;;;;20.53;59.17;100413.78;5018868;28;45258;-49
2022/11/24 11:29:44;;;;;;;;;6.00;4.00;;;;;20.55;59.00;100422.56;5002715;28;46337;-53
2022/11/24 11:32:23;;;;;;;;;3.25;2.00;;;;;20.56;59.05;100403.06;5018899;28;45266;-51
2022/11/24 11:34:49;;;;;;;;;4.50;3.50;;;;;20.57;59.21;100403.00;5019940;28;45341;-53
2022/11/24 11:37:15;;;;;;;;;4.25;4.00;;;;;20.57;59.10;100400.34;5018818;28;45386;-52